Time;durP1;ratioP1;P1;durP2;ratioP2;P2;SDS_P1;SDS_P2;PMS_P1;PMS_P2;Temp;Humidity;BMP_temperature;BMP_pressure;BME280_temperature;BME280_humidity;BME280_pressure;Samples;Min_cycle;Max_cycle;Signal;HPM_P1;HPM_P2
2022/08/05 00:01:20;;;;;;;3.15;1.10;;;24.20;63.60;;;;;;5075113;28;20051;-66
2022/08/05 00:03:46;;;;;;;3.60;1.20;;;24.20;63.70;;;;;;5072912;28;20476;-66
2022/08/05 00:06:12;;;;;;;2.67;1.10;;;24.20;63.70;;;;;;5073799;28;20047;-66
2022/08/05 00:08:38;;;;;;;2.90;1.08;;;24.20;63.70;;;;;;5075553;28;20127;-67
2022/08/05 00:11:10;;;;;;;3.75;1.30;;;24.20;63.80;;;;;;5074469;28;20055;-66
2022/08/05 00:13:37;;;;;;;2.63;1.10;;;24.20;63.80;;;;;;5075294;28;20052;-66
2022/08/05 00:16:03;;;;;;;3.53;1.08;;;24.20;63.80;;;;;;5074815;28;20051;-67
2022/08/05 00:18:29;;;;;;;3.17;1.13;;;24.20;63.80;;;;;;5074235;28;20055;-67
2022/08/05 00:20:57;;;;;;;3.10;1.45;;;24.20;63.90;;;;;;5074864;28;20531;-66
2022/08/05 00:23:22;;;;;;;3.60;1.38;;;24.20;63.90;;;;;;5073669;28;20048;-66
2022/08/05 00:25:48;;;;;;;3.33;1.40;;;24.20;63.90;;;;;;5073242;28;20123;-66
2022/08/05 00:28:14;;;;;;;2.42;1.08;;;24.20;64.00;;;;;;5073921;28;20041;-67
2022/08/05 00:30:40;;;;;;;4.88;1.42;;;24.20;64.00;;;;;;5073284;28;20127;-66
2022/08/05 00:33:05;;;;;;;3.00;1.10;;;24.20;64.10;;;;;;5073865;28;20052;-66
2022/08/05 00:35:31;;;;;;;3.08;1.05;;;24.20;64.10;;;;;;5073746;28;20135;-66
2022/08/05 00:37:56;;;;;;;3.03;1.55;;;24.20;64.10;;;;;;5072268;28;20655;-67
2022/08/05 00:40:23;;;;;;;3.72;1.50;;;24.20;64.10;;;;;;5074751;28;20040;-66
2022/08/05 00:42:48;;;;;;;5.28;1.40;;;24.20;64.10;;;;;;5073272;28;20047;-67
2022/08/05 00:45:14;;;;;;;2.10;1.10;;;24.20;64.20;;;;;;5073851;28;20040;-67
2022/08/05 00:47:39;;;;;;;3.13;1.27;;;24.20;64.20;;;;;;5074349;28;20040;-66
2022/08/05 00:50:06;;;;;;;2.47;1.08;;;24.20;64.20;;;;;;5074027;28;20050;-67
2022/08/05 00:52:32;;;;;;;2.45;1.20;;;24.10;64.10;;;;;;5073675;28;20048;-66
2022/08/05 00:54:57;;;;;;;2.63;1.15;;;24.20;64.20;;;;;;5072940;28;20395;-66
2022/08/05 00:57:23;;;;;;;3.58;1.30;;;24.10;64.20;;;;;;5074048;28;20508;-66
2022/08/05 00:59:48;;;;;;;2.30;1.00;;;24.10;64.20;;;;;;5073284;28;20044;-66
2022/08/05 01:02:14;;;;;;;3.38;1.10;;;24.10;64.30;;;;;;5074082;28;20098;-66
2022/08/05 01:04:39;;;;;;;3.05;1.13;;;24.10;64.30;;;;;;5074218;28;20044;-66
2022/08/05 01:07:05;;;;;;;3.50;1.33;;;24.10;64.40;;;;;;5072090;28;20052;-66
2022/08/05 01:09:30;;;;;;;3.05;1.10;;;24.10;64.30;;;;;;5074212;28;20032;-67
2022/08/05 01:11:58;;;;;;;2.75;1.10;;;24.20;64.40;;;;;;5073734;28;20495;-67
2022/08/05 01:14:25;;;;;;;1.85;1.10;;;24.10;64.40;;;;;;5071926;28;20064;-67
2022/08/05 01:16:55;;;;;;;3.25;1.55;;;24.10;64.40;;;;;;5055532;28;20048;-67
2022/08/05 01:19:21;;;;;;;2.88;0.90;;;24.10;64.50;;;;;;5072561;28;20515;-66
2022/08/05 01:21:50;;;;;;;2.85;1.02;;;24.10;64.40;;;;;;5072882;28;20045;-66
2022/08/05 01:24:34;;;;;;;1.88;1.00;;;24.10;64.50;;;;;;5073997;28;20048;-66
2022/08/05 01:27:11;;;;;;;3.92;1.13;;;24.10;64.50;;;;;;5073296;28;20053;-66
2022/08/05 01:29:40;;;;;;;3.08;1.25;;;24.10;64.60;;;;;;5072261;28;20760;-66
2022/08/05 01:32:08;;;;;;;3.00;1.20;;;24.10;64.50;;;;;;5072161;28;20089;-67
2022/08/05 01:34:41;;;;;;;1.95;0.85;;;24.10;64.60;;;;;;5038609;28;20102;-67
2022/08/05 01:37:11;;;;;;;2.83;1.30;;;24.10;64.60;;;;;;5056559;28;20151;-66
2022/08/05 01:39:37;;;;;;;1.75;1.05;;;24.10;64.60;;;;;;5055951;28;20044;-67
2022/08/05 01:42:02;;;;;;;3.53;1.00;;;24.10;64.70;;;;;;5054246;28;20059;-66
2022/08/05 01:44:28;;;;;;;2.15;0.93;;;24.10;64.70;;;;;;5055789;28;20072;-66
2022/08/05 01:46:54;;;;;;;2.97;1.20;;;24.10;64.70;;;;;;5055426;28;20051;-66
2022/08/05 01:49:21;;;;;;;2.15;0.82;;;24.10;64.70;;;;;;5055014;28;20048;-66
2022/08/05 01:51:46;;;;;;;1.90;0.98;;;24.10;64.70;;;;;;5038494;28;20080;-66
2022/08/05 01:54:12;;;;;;;1.80;1.00;;;24.10;64.70;;;;;;5072972;28;20079;-66
2022/08/05 01:56:39;;;;;;;2.53;1.00;;;24.10;64.80;;;;;;5071166;28;20067;-66
2022/08/05 01:59:08;;;;;;;2.03;1.00;;;24.10;64.80;;;;;;5055008;28;20495;-66
2022/08/05 02:01:33;;;;;;;2.72;0.90;;;24.10;64.80;;;;;;5071639;28;20135;-66
2022/08/05 02:03:59;;;;;;;3.22;1.08;;;24.10;64.80;;;;;;5070838;28;20056;-66
2022/08/05 02:06:24;;;;;;;3.00;1.02;;;24.10;64.80;;;;;;5055028;28;20070;-66
2022/08/05 02:08:50;;;;;;;1.98;0.95;;;24.10;64.90;;;;;;5071785;28;20044;-66
2022/08/05 02:11:16;;;;;;;2.78;1.05;;;24.00;64.80;;;;;;5072052;28;20040;-66
2022/08/05 02:13:53;;;;;;;3.33;1.40;;;24.00;64.80;;;;;;5055200;28;20044;-67
2022/08/05 02:16:29;;;;;;;2.55;1.10;;;24.00;64.80;;;;;;5072289;28;20048;-66
2022/08/05 02:19:11;;;;;;;2.42;0.85;;;24.00;64.90;;;;;;5071484;28;20051;-66
2022/08/05 02:21:39;;;;;;;1.70;1.00;;;24.10;65.00;;;;;;5071611;28;20040;-66
2022/08/05 02:24:07;;;;;;;1.85;0.90;;;24.00;64.90;;;;;;5070521;28;20055;-66
2022/08/05 02:26:37;;;;;;;;;;;24.00;64.90;;;;;;5055620;28;20060;-67
2022/08/05 02:29:03;;;;;;;4.55;1.00;;;24.00;64.90;;;;;;5071108;28;19955;-66
2022/08/05 02:31:30;;;;;;;3.30;0.95;;;24.00;65.00;;;;;;5070859;28;20479;-66
2022/08/05 02:34:10;;;;;;;1.58;0.73;;;24.00;65.00;;;;;;5054531;28;20124;-66
2022/08/05 02:36:38;;;;;;;3.42;1.10;;;24.00;65.00;;;;;;5073068;28;20055;-66
2022/08/05 02:39:05;;;;;;;3.92;1.20;;;24.00;65.00;;;;;;5070574;28;20127;-66
2022/08/05 02:41:31;;;;;;;2.08;1.02;;;24.00;65.10;;;;;;5054512;28;20044;-66
2022/08/05 02:43:56;;;;;;;2.65;1.52;;;24.00;65.10;;;;;;5071089;28;20544;-66
2022/08/05 02:46:22;;;;;;;1.58;1.00;;;24.00;65.10;;;;;;5070478;28;20048;-66
2022/08/05 02:48:47;;;;;;;2.75;1.00;;;24.00;65.10;;;;;;5058653;28;20052;-66
2022/08/05 02:51:13;;;;;;;2.13;1.00;;;24.00;65.10;;;;;;5078193;28;20044;-66
2022/08/05 02:53:39;;;;;;;3.03;1.15;;;24.00;65.10;;;;;;5060605;28;20072;-66
2022/08/05 02:56:05;;;;;;;1.90;0.88;;;24.00;65.20;;;;;;5061316;28;20052;-66
2022/08/05 02:58:30;;;;;;;1.75;0.93;;;24.00;65.10;;;;;;5078621;28;20037;-66
2022/08/05 03:00:57;;;;;;;2.35;1.10;;;24.00;65.20;;;;;;5077285;28;20060;-66
2022/08/05 03:03:23;;;;;;;1.97;1.00;;;24.00;65.20;;;;;;5077725;28;20056;-66
2022/08/05 03:05:48;;;;;;;1.20;0.85;;;24.00;65.20;;;;;;5076904;28;20078;-66
2022/08/05 03:08:14;;;;;;;2.83;1.10;;;24.00;65.20;;;;;;5061084;28;20106;-67
2022/08/05 03:10:43;;;;;;;2.70;1.23;;;24.00;65.20;;;;;;5079061;28;20495;-66
2022/08/05 03:13:12;;;;;;;3.90;1.30;;;24.00;65.20;;;;;;5078337;28;20131;-66
2022/08/05 03:15:37;;;;;;;1.60;0.80;;;24.00;65.30;;;;;;5077697;28;20048;-66
2022/08/05 03:18:03;;;;;;;2.35;1.20;;;24.00;65.30;;;;;;5077251;28;20048;-66
2022/08/05 03:20:28;;;;;;;2.92;1.13;;;24.00;65.30;;;;;;5078394;28;20051;-66
2022/08/05 03:22:54;;;;;;;1.70;0.90;;;24.00;65.30;;;;;;5078463;28;20067;-66
2022/08/05 03:25:21;;;;;;;2.53;0.88;;;24.00;65.30;;;;;;5060919;28;20045;-66
2022/08/05 03:27:47;;;;;;;1.95;0.90;;;24.00;65.40;;;;;;5077001;28;20072;-66
2022/08/05 03:30:12;;;;;;;2.08;1.10;;;24.00;65.30;;;;;;5077414;28;20496;-66
2022/08/05 03:32:38;;;;;;;1.05;0.90;;;24.00;65.40;;;;;;5077697;28;20507;-66
2022/08/05 03:35:04;;;;;;;1.58;1.13;;;23.90;65.30;;;;;;5076627;28;20040;-66
2022/08/05 03:37:31;;;;;;;2.20;1.10;;;23.90;65.40;;;;;;5077920;28;20139;-66
2022/08/05 03:39:58;;;;;;;1.95;0.98;;;23.90;65.40;;;;;;5078671;28;20119;-66
2022/08/05 03:42:24;;;;;;;1.63;0.83;;;23.90;65.50;;;;;;5078045;28;20120;-66
2022/08/05 03:44:49;;;;;;;1.98;0.90;;;23.90;65.40;;;;;;5078154;28;20480;-66
2022/08/05 03:47:15;;;;;;;2.17;0.98;;;23.90;66.10;;;;;;5078737;28;20099;-66
2022/08/05 03:49:41;;;;;;;1.73;0.80;;;23.90;65.40;;;;;;5076543;28;20044;-66
2022/08/05 03:52:09;;;;;;;2.58;0.88;;;23.90;65.50;;;;;;5078335;28;20048;-66
2022/08/05 03:54:53;;;;;;;2.05;0.93;;;23.90;65.50;;;;;;5060613;28;20040;-66
2022/08/05 03:57:23;;;;;;;1.95;1.00;;;23.90;65.50;;;;;;5077226;28;20055;-66
2022/08/05 03:59:52;;;;;;;3.85;1.10;;;23.90;65.50;;;;;;5074490;28;20037;-66
2022/08/05 04:02:19;;;;;;;2.13;1.15;;;23.90;65.50;;;;;;5064943;28;20048;-66
2022/08/05 04:04:44;;;;;;;3.13;1.10;;;23.90;65.50;;;;;;5056997;28;20044;-66
2022/08/05 04:07:10;;;;;;;1.98;0.80;;;23.90;65.50;;;;;;5073482;28;20048;-66
2022/08/05 04:09:35;;;;;;;2.33;0.93;;;23.90;65.50;;;;;;5056526;28;20491;-66
2022/08/05 04:12:01;;;;;;;2.47;1.00;;;23.90;65.60;;;;;;5073553;28;20089;-66
2022/08/05 04:14:26;;;;;;;2.50;0.90;;;23.90;65.60;;;;;;5075144;28;20381;-66
2022/08/05 04:16:52;;;;;;;2.35;0.95;;;23.90;65.60;;;;;;5056014;28;20075;-66
2022/08/05 04:19:18;;;;;;;2.20;1.00;;;23.90;65.60;;;;;;5075145;28;20056;-66
2022/08/05 04:21:43;;;;;;;2.72;1.10;;;23.90;65.60;;;;;;5073506;28;20040;-67
2022/08/05 04:24:09;;;;;;;1.52;0.80;;;23.90;65.60;;;;;;5074553;28;20056;-66
2022/08/05 04:26:34;;;;;;;2.30;1.00;;;23.90;65.60;;;;;;5074762;28;20047;-66
2022/08/05 04:29:00;;;;;;;3.00;0.90;;;23.90;65.60;;;;;;5074776;28;20139;-66
2022/08/05 04:31:26;;;;;;;2.40;0.95;;;23.90;65.60;;;;;;5073705;28;20094;-66
2022/08/05 04:33:51;;;;;;;2.38;0.90;;;23.90;65.60;;;;;;5074606;28;20483;-66
2022/08/05 04:36:17;;;;;;;1.85;0.90;;;23.90;65.70;;;;;;5073339;28;20037;-66
2022/08/05 04:38:42;;;;;;;2.40;0.95;;;23.90;65.70;;;;;;5073514;28;20086;-67
2022/08/05 04:41:08;;;;;;;1.88;0.90;;;23.90;65.70;;;;;;5074402;28;20048;-66
2022/08/05 04:43:34;;;;;;;1.80;1.00;;;23.90;65.70;;;;;;5074471;28;20094;-67
2022/08/05 04:45:59;;;;;;;2.15;0.90;;;23.90;65.70;;;;;;5073342;28;20036;-66
2022/08/05 04:48:25;;;;;;;2.13;1.10;;;23.90;65.80;;;;;;5073387;28;20040;-66
2022/08/05 04:50:50;;;;;;;2.13;0.88;;;23.90;65.70;;;;;;5073009;28;20097;-66
2022/08/05 04:53:16;;;;;;;2.17;0.80;;;23.90;65.80;;;;;;5072751;28;20044;-66
2022/08/05 04:55:42;;;;;;;1.83;0.95;;;23.80;65.70;;;;;;5074442;28;20078;-66
2022/08/05 04:58:10;;;;;;;1.80;1.00;;;23.80;65.70;;;;;;5072267;28;20080;-66
2022/08/05 05:00:35;;;;;;;1.37;0.80;;;23.90;65.80;;;;;;5072886;28;20044;-66
2022/08/05 05:03:02;;;;;;;2.30;1.00;;;23.80;65.70;;;;;;5073788;28;20114;-66
2022/08/05 05:05:27;;;;;;;1.95;0.80;;;23.80;65.80;;;;;;5072910;28;20734;-67
2022/08/05 05:07:54;;;;;;;1.85;0.80;;;23.80;65.80;;;;;;5073955;28;20105;-66
2022/08/05 05:10:19;;;;;;;2.42;0.88;;;23.80;65.80;;;;;;5072527;28;20089;-66
2022/08/05 05:12:45;;;;;;;1.40;0.75;;;23.80;65.80;;;;;;5073032;28;20040;-67
2022/08/05 05:15:10;;;;;;;1.83;0.90;;;23.80;65.80;;;;;;5072948;28;20378;-66
2022/08/05 05:17:39;;;;;;;1.52;0.90;;;23.80;65.80;;;;;;5073974;28;20388;-66
2022/08/05 05:20:06;;;;;;;2.05;0.82;;;23.80;65.80;;;;;;5072711;28;20076;-66
2022/08/05 05:22:32;;;;;;;1.90;0.88;;;23.80;65.80;;;;;;5073810;28;20169;-66
2022/08/05 05:24:57;;;;;;;1.75;0.95;;;23.80;65.80;;;;;;5072417;28;20077;-66
2022/08/05 05:27:23;;;;;;;2.22;1.08;;;23.80;65.80;;;;;;5071926;28;20048;-66
2022/08/05 05:29:49;;;;;;;1.88;1.02;;;23.80;65.80;;;;;;5073316;28;20052;-66
2022/08/05 05:32:14;;;;;;;1.40;0.70;;;23.80;65.80;;;;;;5073349;28;20540;-66
2022/08/05 05:34:40;;;;;;;2.22;0.80;;;23.80;65.80;;;;;;5072840;28;20586;-70
2022/08/05 05:37:05;;;;;;;1.70;0.90;;;23.80;65.90;;;;;;5073141;28;20123;-66
2022/08/05 05:39:31;;;;;;;3.38;0.93;;;23.80;65.90;;;;;;5089139;28;20182;-65
2022/08/05 05:41:56;;;;;;;1.23;0.80;;;23.80;65.90;;;;;;5071421;28;20523;-65
2022/08/05 05:44:22;;;;;;;3.80;0.98;;;23.80;65.90;;;;;;5073487;28;20488;-65
2022/08/05 05:46:47;;;;;;;5.82;1.75;;;23.80;65.90;;;;;;5073124;28;20036;-65
2022/08/05 05:49:13;;;;;;;5.90;1.60;;;23.80;65.70;;;;;;5072661;28;20045;-63
2022/08/05 05:51:38;;;;;;;5.18;1.52;;;23.80;65.60;;;;;;5089172;28;20123;-64
2022/08/05 05:54:04;;;;;;;6.72;1.95;;;23.70;65.30;;;;;;5073063;28;20127;-64
2022/08/05 05:56:30;;;;;;;7.68;1.95;;;23.70;65.10;;;;;;5071114;28;20182;-65
2022/08/05 05:58:55;;;;;;;5.32;1.70;;;23.70;65.10;;;;;;5071761;28;20037;-65
2022/08/05 06:01:21;;;;;;;4.72;1.70;;;23.70;65.20;;;;;;5071599;28;20048;-65
2022/08/05 06:03:46;;;;;;;4.45;1.70;;;23.70;65.10;;;;;;5071144;28;20506;-66
2022/08/05 06:06:12;;;;;;;7.65;1.83;;;23.70;64.90;;;;;;5072874;28;20479;-65
2022/08/05 06:08:37;;;;;;;3.40;1.58;;;23.70;64.90;;;;;;5072324;28;20111;-65
2022/08/05 06:11:03;;;;;;;3.92;1.40;;;23.70;64.90;;;;;;5071646;28;20361;-66
2022/08/05 06:13:29;;;;;;;3.85;1.80;;;23.70;65.10;;;;;;5072936;28;20549;-66
2022/08/05 06:15:54;;;;;;;4.63;1.77;;;23.70;65.00;;;;;;5071639;28;20155;-66
2022/08/05 06:18:20;;;;;;;7.20;1.85;;;23.70;64.90;;;;;;5073050;28;20032;-66
2022/08/05 06:20:45;;;;;;;5.05;1.70;;;23.70;64.80;;;;;;5071286;28;20400;-66
2022/08/05 06:23:11;;;;;;;8.40;2.05;;;23.70;64.70;;;;;;5070722;28;20055;-65
2022/08/05 06:25:36;;;;;;;6.15;1.60;;;23.70;64.90;;;;;;5072228;28;20407;-67
2022/08/05 06:28:02;;;;;;;3.42;1.80;;;23.70;64.70;;;;;;5072138;28;20482;-66
2022/08/05 06:30:27;;;;;;;6.75;1.80;;;23.60;64.80;;;;;;5070075;28;20468;-66
2022/08/05 06:32:53;;;;;;;4.70;1.45;;;23.60;64.90;;;;;;5070609;28;20053;-65
2022/08/05 06:35:18;;;;;;;6.38;1.58;;;23.70;64.90;;;;;;5072373;28;20049;-65
2022/08/05 06:37:44;;;;;;;6.03;1.70;;;23.60;64.70;;;;;;5071415;28;20040;-65
2022/08/05 06:40:10;;;;;;;3.67;1.40;;;23.60;64.70;;;;;;5071547;28;20044;-65
2022/08/05 06:42:36;;;;;;;2.67;1.48;;;23.60;64.70;;;;;;5071631;28;20063;-65
2022/08/05 06:45:03;;;;;;;2.92;1.50;;;23.60;64.80;;;;;;5071445;28;20833;-65
2022/08/05 06:47:28;;;;;;;4.35;1.48;;;23.70;64.90;;;;;;5072391;28;20068;-66
2022/08/05 06:49:54;;;;;;;3.30;1.45;;;23.60;64.80;;;;;;5072176;28;20484;-66
2022/08/05 06:52:19;;;;;;;4.72;1.58;;;23.70;65.10;;;;;;5070320;28;20044;-65
2022/08/05 06:54:45;;;;;;;4.00;1.42;;;23.70;65.00;;;;;;5070189;28;20068;-66
2022/08/05 06:57:13;;;;;;;6.35;1.55;;;23.70;65.00;;;;;;5071949;28;20040;-66
2022/08/05 06:59:38;;;;;;;;;;;23.70;65.00;;;;;;5066288;28;20040;-66
2022/08/05 07:02:04;;;;;;;3.65;1.20;;;23.60;64.80;;;;;;5069805;28;19921;-67
2022/08/05 07:04:30;;;;;;;4.13;1.30;;;23.60;65.00;;;;;;5067077;28;20098;-67
2022/08/05 07:06:55;;;;;;;6.22;1.65;;;23.70;64.90;;;;;;5051631;28;20488;-67
2022/08/05 07:09:21;;;;;;;3.45;1.48;;;23.60;64.90;;;;;;5051530;28;20087;-67
2022/08/05 07:11:46;;;;;;;4.47;1.75;;;23.60;64.90;;;;;;5050548;28;20033;-67
2022/08/05 07:17:00;;;;;;;6.03;1.60;;;23.60;64.80;;;;;;5065237;28;20085;-66
2022/08/05 07:19:26;;;;;;;4.28;1.30;;;23.60;64.80;;;;;;5056263;28;20054;-67
2022/08/05 07:21:51;;;;;;;3.90;0.90;;;23.60;64.80;;;;;;5058425;28;20091;-67
2022/08/05 07:24:17;;;;;;;4.50;1.30;;;23.60;64.70;;;;;;5055962;28;20080;-64
2022/08/05 07:26:44;;;;;;;4.70;1.42;;;23.60;64.60;;;;;;5050914;28;20047;-65
2022/08/05 07:29:10;;;;;;;4.45;1.30;;;23.60;64.60;;;;;;5050414;28;20051;-64
2022/08/05 07:31:36;;;;;;;4.38;1.25;;;23.60;64.30;;;;;;5049656;28;20041;-65
2022/08/05 07:34:01;;;;;;;5.30;1.30;;;23.60;64.20;;;;;;5050881;28;20114;-65
2022/08/05 07:36:27;;;;;;;4.30;1.38;;;23.60;64.20;;;;;;5055004;28;20045;-65
2022/08/05 07:38:53;;;;;;;5.10;1.75;;;23.60;64.20;;;;;;5055425;28;20119;-64
2022/08/05 07:41:19;;;;;;;5.22;1.67;;;23.60;64.10;;;;;;5054625;28;20087;-64
2022/08/05 07:43:45;;;;;;;5.65;1.35;;;23.60;64.20;;;;;;5055087;28;20045;-65
2022/08/05 07:46:10;;;;;;;6.22;1.50;;;23.60;64.10;;;;;;5053867;28;20052;-64
2022/08/05 07:48:36;;;;;;;5.43;1.42;;;23.60;64.20;;;;;;5054594;28;20041;-65
2022/08/05 07:51:01;;;;;;;9.40;1.95;;;23.60;64.20;;;;;;5055120;28;20197;-65
2022/08/05 07:53:27;;;;;;;6.80;1.75;;;23.60;64.20;;;;;;5054275;28;20122;-65
2022/08/05 07:55:53;;;;;;;7.85;1.75;;;23.60;64.20;;;;;;5054023;28;20051;-64
2022/08/05 07:58:18;;;;;;;5.32;1.55;;;23.60;64.30;;;;;;5055307;28;20041;-65
2022/08/05 08:00:44;;;;;;;4.80;1.48;;;23.60;64.30;;;;;;5054643;28;20041;-65
2022/08/05 08:03:10;;;;;;;6.80;1.90;;;23.60;64.30;;;;;;5054243;28;20045;-64
2022/08/05 08:05:41;;;;;;;4.13;1.40;;;23.60;64.30;;;;;;5055047;28;20041;-65
2022/08/05 08:08:06;;;;;;;6.50;1.67;;;23.60;64.20;;;;;;5052661;28;20049;-65
2022/08/05 08:10:32;;;;;;;4.43;1.77;;;23.60;64.10;;;;;;5054702;28;20048;-66
2022/08/05 08:12:57;;;;;;;3.53;1.60;;;23.60;64.00;;;;;;5054632;28;20063;-66
2022/08/05 08:15:23;;;;;;;4.30;1.65;;;23.60;64.20;;;;;;5052701;28;20124;-66
2022/08/05 08:17:48;;;;;;;3.00;1.23;;;23.60;64.30;;;;;;5053058;28;20489;-66
2022/08/05 08:20:14;;;;;;;3.58;1.52;;;23.60;64.40;;;;;;5053431;28;20045;-66
2022/08/05 08:22:39;;;;;;;2.95;1.50;;;23.60;64.40;;;;;;5052339;28;20048;-66
2022/08/05 08:25:05;;;;;;;4.10;1.30;;;23.60;64.40;;;;;;5054178;28;20045;-66
2022/08/05 08:27:31;;;;;;;4.75;1.30;;;23.60;64.40;;;;;;5054498;28;20048;-66
2022/08/05 08:29:57;;;;;;;4.53;1.35;;;23.70;64.50;;;;;;5053391;28;20045;-66
2022/08/05 08:32:22;;;;;;;3.83;1.33;;;23.70;64.50;;;;;;5054507;28;20136;-66
2022/08/05 08:34:48;;;;;;;3.97;1.40;;;23.70;64.50;;;;;;5054322;28;20045;-66
2022/08/05 08:37:15;;;;;;;2.83;1.40;;;23.70;64.50;;;;;;5053914;28;20128;-66
2022/08/05 08:39:40;;;;;;;4.32;1.48;;;23.70;64.60;;;;;;5077836;28;20048;-66
2022/08/05 08:42:07;;;;;;;3.25;1.23;;;23.70;64.50;;;;;;5094354;28;20059;-66
2022/08/05 08:44:33;;;;;;;4.90;1.40;;;23.70;64.50;;;;;;5092343;28;20051;-66
2022/08/05 08:47:00;;;;;;;3.47;1.38;;;23.70;64.60;;;;;;5058418;28;20036;-66
2022/08/05 08:49:25;;;;;;;2.92;1.15;;;23.70;64.60;;;;;;5093363;28;20055;-66
2022/08/05 08:52:02;;;;;;;3.88;1.40;;;23.70;64.60;;;;;;5092428;28;20446;-66
2022/08/05 08:54:28;;;;;;;3.70;1.13;;;23.80;64.70;;;;;;5093300;28;20055;-66
2022/08/05 08:56:54;;;;;;;4.88;1.80;;;23.80;64.70;;;;;;5059444;28;20063;-66
2022/08/05 08:59:19;;;;;;;3.15;1.25;;;23.80;64.70;;;;;;5092021;28;20422;-66
2022/08/05 09:01:45;;;;;;;5.75;1.20;;;23.80;64.70;;;;;;5092610;28;20491;-66
2022/08/05 09:04:11;;;;;;;5.03;1.20;;;23.80;64.70;;;;;;5092808;28;20044;-66
2022/08/05 09:06:37;;;;;;;4.28;1.02;;;23.80;64.70;;;;;;5092178;28;20075;-66
2022/08/05 09:09:02;;;;;;;4.32;1.20;;;23.80;64.60;;;;;;5093995;28;20079;-66
2022/08/05 09:11:28;;;;;;;3.20;1.05;;;23.80;64.60;;;;;;5091957;28;20044;-69
2022/08/05 09:13:54;;;;;;;2.70;1.38;;;23.80;64.50;;;;;;5093854;28;20086;-69
2022/08/05 09:16:20;;;;;;;4.47;1.25;;;23.80;64.40;;;;;;5075336;28;20048;-68
2022/08/05 09:18:46;;;;;;;8.88;1.30;;;23.80;64.40;;;;;;5091410;28;20109;-67
2022/08/05 09:21:11;;;;;;;4.95;1.23;;;23.90;64.40;;;;;;5092732;28;20455;-67
2022/08/05 09:23:37;;;;;;;4.47;1.10;;;23.80;64.40;;;;;;5093804;28;20161;-68
2022/08/05 09:26:07;;;;;;;4.35;1.27;;;23.80;64.40;;;;;;5078393;28;20055;-68
2022/08/05 09:28:33;;;;;;;5.72;1.70;;;23.90;64.60;;;;;;5071594;28;20044;-70
2022/08/05 09:31:04;;;;;;;9.35;1.58;;;23.90;64.80;;;;;;5072880;28;20075;-70
2022/08/05 09:33:30;;;;;;;9.15;1.90;;;23.90;65.10;;;;;;5072552;28;20388;-71
2022/08/05 09:36:03;;;;;;;3.83;1.58;;;23.90;65.20;;;;;;5073160;28;20041;-70
2022/08/05 09:38:29;;;;;;;4.85;1.08;;;23.90;65.40;;;;;;5073086;28;20090;-69
2022/08/05 09:41:06;;;;;;;5.78;1.50;;;23.90;65.40;;;;;;5072043;28;20131;-69
2022/08/05 09:43:35;;;;;;;3.55;1.17;;;23.90;65.60;;;;;;5072885;28;20507;-69
2022/08/05 09:46:01;;;;;;;10.00;1.45;;;24.00;65.80;;;;;;5072648;28;20048;-68
2022/08/05 09:48:31;;;;;;;6.22;1.20;;;24.00;65.80;;;;;;5072332;28;20040;-67
2022/08/05 09:51:07;;;;;;;3.38;1.13;;;24.00;65.80;;;;;;5072819;28;20072;-67
2022/08/05 09:53:49;;;;;;;5.72;1.23;;;24.00;65.40;;;;;;5072303;28;20051;-67
2022/08/05 09:56:34;;;;;;;4.20;1.40;;;24.00;65.10;;;;;;5071776;28;20480;-67
2022/08/05 09:59:03;;;;;;;4.30;1.05;;;24.00;65.00;;;;;;5070628;28;20045;-68
2022/08/05 10:01:32;;;;;;;6.53;1.27;;;24.00;64.80;;;;;;5072113;28;20075;-68
2022/08/05 10:03:59;;;;;;;6.32;1.10;;;24.00;64.80;;;;;;5072331;28;20067;-68
2022/08/05 10:06:26;;;;;;;4.25;1.30;;;24.00;64.80;;;;;;5072774;28;20048;-67
2022/08/05 10:08:52;;;;;;;2.40;0.93;;;24.00;64.80;;;;;;5070576;28;20067;-68
2022/08/05 10:11:17;;;;;;;5.50;1.45;;;24.00;64.70;;;;;;5071616;28;20488;-68
2022/08/05 10:13:43;;;;;;;2.63;1.00;;;24.00;64.70;;;;;;5070926;28;20396;-68
2022/08/05 10:16:32;;;;;;;3.47;1.10;;;24.00;64.70;;;;;;5071930;28;20036;-68
2022/08/05 10:18:58;;;;;;;3.97;1.10;;;24.10;64.80;;;;;;5071252;28;20044;-69
2022/08/05 10:21:24;;;;;;;3.20;1.10;;;24.10;64.70;;;;;;5054504;28;20090;-69
2022/08/05 10:23:49;;;;;;;2.90;0.90;;;24.10;64.70;;;;;;5071188;28;20145;-66
2022/08/05 10:26:15;;;;;;;3.63;1.02;;;24.10;64.70;;;;;;5071254;28;20044;-66
2022/08/05 10:28:44;;;;;;;3.83;0.90;;;24.10;64.60;;;;;;5069822;28;20052;-67
2022/08/05 10:31:11;;;;;;;3.38;0.95;;;24.20;64.60;;;;;;5070618;28;20090;-67
2022/08/05 10:33:36;;;;;;;2.17;0.85;;;24.20;64.50;;;;;;5071183;28;20134;-67
2022/08/05 10:36:03;;;;;;;3.58;0.90;;;24.20;64.50;;;;;;5070369;28;20786;-67
2022/08/05 10:38:29;;;;;;;3.88;1.10;;;24.20;64.40;;;;;;5072158;28;20450;-67
2022/08/05 10:41:02;;;;;;;4.13;1.15;;;24.20;64.40;;;;;;5054235;28;20040;-67
2022/08/05 10:43:35;;;;;;;3.00;1.08;;;24.20;64.30;;;;;;5070237;28;20045;-67
2022/08/05 10:46:09;;;;;;;2.60;1.00;;;24.30;64.20;;;;;;5070297;28;20448;-67
2022/08/05 10:48:35;;;;;;;2.80;1.00;;;24.30;64.10;;;;;;5072291;28;20486;-67
2022/08/05 10:51:09;;;;;;;2.63;0.82;;;24.30;64.00;;;;;;5071523;28;20044;-66
2022/08/05 10:53:37;;;;;;;2.85;0.68;;;24.30;64.00;;;;;;5072247;28;20041;-67
2022/08/05 10:56:05;;;;;;;2.95;0.90;;;24.30;63.90;;;;;;5070519;28;20426;-67
2022/08/05 10:58:30;;;;;;;3.47;0.98;;;24.30;63.60;;;;;;5071336;28;20051;-66
2022/08/05 11:00:56;;;;;;;3.20;0.80;;;24.30;63.50;;;;;;5071819;28;20127;-66
2022/08/05 11:03:21;;;;;;;4.40;1.20;;;24.30;63.40;;;;;;5072066;28;20044;-67
2022/08/05 11:06:03;;;;;;;3.25;1.20;;;24.30;63.30;;;;;;5069542;28;20044;-67
2022/08/05 11:08:29;;;;;;;3.67;0.80;;;24.40;63.20;;;;;;5072217;28;20055;-67
2022/08/05 11:10:55;;;;;;;3.67;0.70;;;24.40;63.20;;;;;;5073812;28;20697;-67
2022/08/05 11:13:39;;;;;;;4.05;0.70;;;24.40;63.10;;;;;;5075007;28;20037;-67
2022/08/05 11:16:20;;;;;;;2.30;0.70;;;24.40;62.90;;;;;;5058039;28;20052;-67
2022/08/05 11:18:45;;;;;;;4.10;0.75;;;24.40;62.80;;;;;;5073418;28;20033;-66
2022/08/05 11:21:29;;;;;;;3.38;0.75;;;24.40;62.80;;;;;;5074846;28;20049;-67
2022/08/05 11:23:55;;;;;;;3.17;1.00;;;24.50;62.70;;;;;;5074009;28;20049;-66
2022/08/05 11:26:21;;;;;;;3.05;0.70;;;24.50;62.60;;;;;;5074053;28;20131;-66
2022/08/05 11:28:48;;;;;;;1.52;0.60;;;24.50;62.50;;;;;;5075347;28;20119;-67
2022/08/05 11:31:14;;;;;;;2.53;0.70;;;24.50;62.40;;;;;;5075330;28;20087;-67
2022/08/05 11:33:45;;;;;;;3.85;0.80;;;24.50;62.20;;;;;;5074681;28;20157;-66
2022/08/05 11:36:12;;;;;;;2.38;0.70;;;24.50;62.20;;;;;;5074279;28;20044;-67
2022/08/05 11:38:37;;;;;;;3.58;0.80;;;24.50;62.10;;;;;;5075229;28;20136;-74
2022/08/05 11:41:15;;;;;;;1.77;0.60;;;24.50;62.60;;;;;;5074388;28;20115;-70
2022/08/05 11:43:54;;;;;;;1.02;0.38;;;24.50;61.00;;;;;;5073982;28;20041;-72
2022/08/05 11:46:27;;;;;;;1.45;0.20;;;24.40;52.70;;;;;;5073208;28;20048;-79
2022/08/05 11:48:53;;;;;;;1.55;0.20;;;24.20;49.10;;;;;;5073747;28;20047;-69
2022/08/05 11:51:18;;;;;;;0.88;0.20;;;24.10;48.70;;;;;;5074075;28;20123;-72
2022/08/05 11:53:45;;;;;;;4.53;0.82;;;24.00;47.00;;;;;;5073120;28;20123;-66
2022/08/05 11:56:11;;;;;;;0.38;0.10;;;23.90;45.40;;;;;;5073870;28;20502;-65
2022/08/05 11:58:40;;;;;;;0.68;0.20;;;23.80;44.50;;;;;;5074873;28;20111;-66
2022/08/05 12:01:07;;;;;;;5.78;0.40;;;23.80;44.20;;;;;;5074127;28;20055;-65
2022/08/05 12:03:47;;;;;;;4.20;0.30;;;23.70;43.70;;;;;;5073849;28;20054;-66
2022/08/05 12:06:14;;;;;;;1.52;0.30;;;23.70;43.00;;;;;;5074995;28;20496;-66
2022/08/05 12:08:39;;;;;;;1.38;0.40;;;23.60;43.30;;;;;;5074361;28;20123;-66
2022/08/05 12:11:05;;;;;;;1.38;0.20;;;23.60;42.30;;;;;;5074529;28;20128;-66
2022/08/05 12:13:30;;;;;;;0.63;0.30;;;23.60;41.90;;;;;;5057235;28;20047;-66
2022/08/05 12:15:56;;;;;;;1.73;0.50;;;23.50;41.80;;;;;;5073979;28;20396;-66
2022/08/05 12:18:34;;;;;;;0.70;0.20;;;23.50;41.70;;;;;;5073211;28;20062;-67
2022/08/05 12:21:14;;;;;;;0.80;0.20;;;23.50;40.90;;;;;;5071980;28;20049;-67
2022/08/05 12:23:49;;;;;;;0.15;0.10;;;23.50;40.90;;;;;;5074537;28;20135;-67
2022/08/05 12:26:15;;;;;;;2.70;0.20;;;23.50;41.20;;;;;;5074920;28;20115;-67
2022/08/05 12:28:40;;;;;;;1.55;0.28;;;23.50;41.30;;;;;;5073597;28;20175;-66
2022/08/05 12:31:06;;;;;;;1.30;0.30;;;23.50;41.30;;;;;;5072541;28;20166;-66
2022/08/05 12:33:32;;;;;;;1.48;0.20;;;23.50;41.40;;;;;;5039920;28;20102;-66
2022/08/05 12:35:57;;;;;;;1.75;0.30;;;23.50;41.60;;;;;;5055429;28;20051;-67
2022/08/05 12:38:23;;;;;;;1.05;0.30;;;23.40;41.80;;;;;;5039455;28;20053;-67
2022/08/05 12:40:49;;;;;;;1.02;0.20;;;23.50;41.90;;;;;;5055611;28;20466;-67
2022/08/05 12:43:17;;;;;;;0.20;0.10;;;23.50;41.70;;;;;;5055429;28;20045;-66
2022/08/05 12:45:53;;;;;;;1.52;0.30;;;23.50;41.90;;;;;;5072561;28;20135;-67
2022/08/05 12:48:19;;;;;;;2.33;0.30;;;23.40;41.70;;;;;;5071972;28;20128;-67
2022/08/05 12:51:11;;;;;;;0.88;0.25;;;23.40;42.00;;;;;;5068243;28;20115;-67